Time;durP1;ratioP1;P1;durP2;ratioP2;P2;SDS_P1;SDS_P2;PMS_P1;PMS_P2;Temp;Humidity;BMP_temperature;BMP_pressure;BME280_temperature;BME280_humidity;BME280_pressure;Samples;Min_cycle;Max_cycle;Signal;HPM_P1;HPM_P2
2024/01/09 00:01:42;;;;;;;3.87;3.47;;;;;;;21.52;31.56;94944.16;6043475;28;110218;-56
2024/01/09 00:04:45;;;;;;;4.10;3.60;;;;;;;21.53;31.47;94942.28;6048975;28;110138;-55
2024/01/09 00:07:50;;;;;;;3.87;3.53;;;;;;;21.52;31.67;94946.03;6049232;28;111114;-55
2024/01/09 00:10:53;;;;;;;3.87;3.40;;;;;;;21.52;31.87;94948.72;6051608;28;109143;-55
2024/01/09 00:13:56;;;;;;;3.80;3.47;;;;;;;21.54;31.89;94959.06;6059156;28;109330;-54
2024/01/09 00:16:59;;;;;;;4.50;4.10;;;;;;;21.51;31.88;94955.91;6050403;28;110201;-54
2024/01/09 00:20:02;;;;;;;4.40;4.00;;;;;;;21.52;31.44;94956.69;6060588;28;110024;-54
2024/01/09 00:23:06;;;;;;;4.20;3.80;;;;;;;21.52;31.91;94967.34;6059235;28;109246;-54
2024/01/09 00:26:10;;;;;;;4.80;3.80;;;;;;;21.50;31.42;94962.28;6058756;28;109963;-54
2024/01/09 00:29:13;;;;;;;3.80;3.50;;;;;;;21.50;31.37;94969.50;6049982;28;109302;-54
2024/01/09 00:32:16;;;;;;;3.87;3.57;;;;;;;21.48;31.38;94967.13;6052740;28;109045;-54
2024/01/09 00:35:19;;;;;;;3.80;3.50;;;;;;;21.48;31.77;94966.34;6036692;28;110092;-54
2024/01/09 00:38:24;;;;;;;4.40;3.70;;;;;;;21.46;31.22;94977.31;6029880;28;109011;-55
2024/01/09 00:41:27;;;;;;;4.00;3.70;;;;;;;21.53;31.10;94971.59;6043381;28;110132;-55
2024/01/09 00:44:30;;;;;;;3.53;3.23;;;;;;;21.60;30.98;94979.13;6037376;28;109253;-54
2024/01/09 00:47:33;;;;;;;4.20;3.80;;;;;;;21.60;31.45;94984.44;6040401;28;109190;-54
2024/01/09 00:50:36;;;;;;;4.20;3.80;;;;;;;21.62;31.65;94987.59;6031918;28;110178;-54
2024/01/09 00:53:41;;;;;;;3.60;3.30;;;;;;;21.63;31.69;94989.16;6063959;28;109995;-54
2024/01/09 00:56:44;;;;;;;3.60;3.30;;;;;;;21.63;31.57;94995.28;6063725;28;108961;-54
2024/01/09 00:59:47;;;;;;;4.00;3.60;;;;;;;21.61;31.31;94996.69;6063579;28;109040;-54
2024/01/09 01:02:50;;;;;;;4.10;3.70;;;;;;;21.61;31.52;95002.78;6053832;28;111047;-54
2024/01/09 01:05:54;;;;;;;3.90;3.50;;;;;;;21.62;31.32;95000.91;6063524;28;111311;-54
2024/01/09 01:08:59;;;;;;;3.73;3.33;;;;;;;21.61;31.49;95008.13;6044086;28;108662;-54
2024/01/09 01:12:03;;;;;;;4.10;3.70;;;;;;;21.56;31.61;94994.94;6048847;28;109940;-55
2024/01/09 01:15:07;;;;;;;4.33;3.93;;;;;;;21.56;31.65;95002.13;6057419;28;109367;-53
2024/01/09 01:18:10;;;;;;;4.30;3.90;;;;;;;21.57;31.66;95006.38;6063132;28;110179;-54
2024/01/09 01:21:15;;;;;;;4.23;3.83;;;;;;;21.55;31.98;95011.22;6065799;28;109185;-54
2024/01/09 01:24:20;;;;;;;4.10;3.80;;;;;;;21.51;31.70;95003.84;6053039;28;110407;-54
2024/01/09 01:27:23;;;;;;;3.97;3.67;;;;;;;21.52;31.73;95008.06;6063221;28;110101;-54
2024/01/09 01:30:26;;;;;;;4.00;3.60;;;;;;;21.50;31.97;95004.09;6061817;28;109102;-54
2024/01/09 01:33:29;;;;;;;4.13;3.73;;;;;;;21.51;31.66;95003.84;6060194;28;109211;-54
2024/01/09 01:36:32;;;;;;;4.10;3.60;;;;;;;21.52;31.91;95010.72;6028771;28;110103;-54
2024/01/09 01:39:37;;;;;;;3.77;3.40;;;;;;;21.52;31.35;95009.94;6043684;28;109253;-54
2024/01/09 01:42:40;;;;;;;3.63;3.33;;;;;;;21.51;31.99;95011.81;6061744;28;110885;-54
2024/01/09 01:45:43;;;;;;;4.00;3.70;;;;;;;21.52;31.48;95012.59;6047091;28;109371;-54
2024/01/09 01:48:47;;;;;;;3.70;3.40;;;;;;;21.51;31.72;95009.16;6037236;28;109060;-54
2024/01/09 01:51:52;;;;;;;4.30;3.90;;;;;;;21.52;31.36;95010.72;6132806;28;109057;-54
2024/01/09 01:54:56;;;;;;;3.87;3.57;;;;;;;21.50;31.74;95007.56;6043355;28;109168;-54
2024/01/09 01:58:00;;;;;;;4.30;3.90;;;;;;;21.46;31.57;95011.91;6045100;28;110056;-55
2024/01/09 02:01:04;;;;;;;4.20;3.80;;;;;;;21.48;31.86;95014.28;6046081;28;110203;-53
2024/01/09 02:04:08;;;;;;;3.60;3.30;;;;;;;21.46;31.70;95011.13;6062039;28;110184;-53
2024/01/09 02:07:11;;;;;;;4.47;4.07;;;;;;;21.47;31.49;95018.81;6060061;28;109138;-53
2024/01/09 02:10:16;;;;;;;3.47;3.13;;;;;;;21.46;31.66;95025.22;6031603;28;110388;-53
2024/01/09 02:13:20;;;;;;;5.13;3.70;;;;;;;21.47;31.35;95012.72;6051480;28;109862;-54
2024/01/09 02:16:23;;;;;;;4.00;3.70;;;;;;;21.45;31.86;95021.00;6058030;28;109968;-54
2024/01/09 02:19:26;;;;;;;3.87;3.53;;;;;;;21.46;31.51;95016.47;6062198;28;109922;-54
2024/01/09 02:22:29;;;;;;;3.77;3.30;;;;;;;21.45;31.80;95017.56;6032955;28;109740;-54
2024/01/09 02:25:34;;;;;;;3.27;2.97;;;;;;;21.45;31.68;95023.66;6057058;28;109105;-54
2024/01/09 02:28:46;;;;;;;3.97;3.67;;;;;;;21.45;31.12;95020.22;6049462;28;109149;-54
2024/01/09 02:31:52;;;;;;;3.43;3.13;;;;;;;21.47;31.61;95023.34;6048684;28;110258;-54
2024/01/09 02:34:55;;;;;;;3.60;3.30;;;;;;;21.47;31.20;95023.34;6055583;28;109493;-54
2024/01/09 02:37:58;;;;;;;3.60;3.30;;;;;;;21.47;31.52;95026.00;6055394;28;109180;-54
2024/01/09 02:41:01;;;;;;;5.23;3.30;;;;;;;21.47;31.45;95034.78;6048408;28;110480;-54
2024/01/09 02:44:04;;;;;;;3.60;3.30;;;;;;;21.46;31.30;95027.91;6051796;28;110237;-54
2024/01/09 02:47:09;;;;;;;3.23;2.93;;;;;;;21.47;31.20;95029.47;6062564;28;109133;-54
2024/01/09 02:50:12;;;;;;;3.57;3.27;;;;;;;21.44;31.41;95024.75;6040157;28;109409;-54
2024/01/09 02:53:15;;;;;;;3.83;3.53;;;;;;;21.45;31.20;95030.84;6043623;28;109046;-54
2024/01/09 02:56:18;;;;;;;3.80;3.40;;;;;;;21.43;31.13;95023.19;6043297;28;109202;-54
2024/01/09 02:59:23;;;;;;;3.73;3.43;;;;;;;21.43;31.31;95025.06;6057539;28;109004;-54
2024/01/09 03:02:28;;;;;;;4.00;3.50;;;;;;;21.42;31.17;95026.94;6057289;28;109170;-54
2024/01/09 03:05:31;;;;;;;3.50;3.20;;;;;;;21.42;31.39;95032.25;6051808;28;110361;-54
2024/01/09 03:08:37;;;;;;;3.30;3.00;;;;;;;21.42;31.29;95031.47;6045268;28;109373;-54
2024/01/09 03:11:40;;;;;;;3.20;2.90;;;;;;;21.41;30.92;95030.69;6039732;28;109595;-54
2024/01/09 03:14:43;;;;;;;2.90;2.70;;;;;;;21.42;31.16;95034.91;6043322;28;109110;-54
2024/01/09 03:17:47;;;;;;;3.27;2.90;;;;;;;21.42;30.96;95032.25;6045873;28;109381;-54
2024/01/09 03:20:50;;;;;;;3.37;3.07;;;;;;;21.42;31.14;95042.91;6060890;28;110044;-54
2024/01/09 03:23:54;;;;;;;3.50;3.20;;;;;;;21.42;31.05;95037.59;6050836;28;110083;-54
2024/01/09 03:26:57;;;;;;;3.67;2.57;;;;;;;21.42;31.22;95042.91;6053499;28;109032;-54
2024/01/09 03:30:00;;;;;;;2.77;2.57;;;;;;;21.43;31.15;95041.03;6048241;28;109105;-54
2024/01/09 03:33:05;;;;;;;3.17;2.80;;;;;;;21.42;31.08;95040.25;6042896;28;109825;-54
2024/01/09 03:36:09;;;;;;;3.33;3.03;;;;;;;21.44;30.78;95051.38;6060637;28;109087;-54
2024/01/09 03:39:14;;;;;;;2.67;2.27;;;;;;;21.48;30.86;95052.34;6056927;28;109112;-55
2024/01/09 03:42:17;;;;;;;2.83;2.47;;;;;;;21.45;31.55;95055.59;6045776;28;109721;-58
2024/01/09 03:45:20;;;;;;;3.33;2.60;;;;;;;21.43;30.63;95054.34;6058787;28;108875;-58
2024/01/09 03:48:25;;;;;;;4.13;2.20;;;;;;;21.42;30.78;95052.75;6054669;28;109332;-58
2024/01/09 03:51:29;;;;;;;2.40;2.20;;;;;;;21.41;31.21;95054.63;6050457;28;110484;-58
2024/01/09 03:54:32;;;;;;;2.90;2.10;;;;;;;21.41;30.99;95064.50;6051252;28;109109;-58
2024/01/09 03:57:35;;;;;;;3.00;2.10;;;;;;;21.38;31.38;95076.53;6060275;28;109119;-58
2024/01/09 04:00:38;;;;;;;1.90;1.70;;;;;;;21.38;30.86;95073.88;6061502;28;109100;-58
2024/01/09 04:03:43;;;;;;;2.23;2.03;;;;;;;21.46;31.11;95083.81;6051371;28;110043;-59
2024/01/09 04:06:46;;;;;;;2.37;2.17;;;;;;;21.48;30.97;95094.94;6051256;28;109589;-59
2024/01/09 04:09:49;;;;;;;3.60;2.07;;;;;;;21.49;30.74;95096.50;6056791;28;110038;-58
2024/01/09 04:12:53;;;;;;;3.03;2.30;;;;;;;21.49;31.19;95103.72;6040939;28;109450;-59
2024/01/09 04:15:56;;;;;;;2.53;2.33;;;;;;;21.56;30.75;95100.66;6045172;28;109144;-60
2024/01/09 04:19:00;;;;;;;3.87;2.40;;;;;;;21.62;30.74;95099.44;6051135;28;109001;-59
2024/01/09 04:22:04;;;;;;;18.20;16.60;;;;;;;21.58;31.34;95099.25;6060309;28;109051;-59
2024/01/09 04:25:08;;;;;;;11.87;9.07;;;;;;;21.65;31.25;95106.81;6054853;28;109112;-59
2024/01/09 04:28:11;;;;;;;16.53;14.83;;;;;;;21.62;31.23;95110.88;6055520;28;109233;-59
2024/01/09 04:31:18;;;;;;;18.20;16.80;;;;;;;21.55;31.53;95115.84;6060828;28;109919;-59
2024/01/09 04:34:22;;;;;;;20.07;18.47;;;;;;;21.48;31.82;95124.22;6052195;28;109215;-59
2024/01/09 04:37:25;;;;;;;16.10;14.60;;;;;;;21.47;31.19;95125.31;6033985;28;109550;-58
2024/01/09 04:40:29;;;;;;;18.27;16.60;;;;;;;21.50;31.54;95123.91;6063643;28;110329;-59
2024/01/09 04:43:32;;;;;;;16.97;15.60;;;;;;;21.49;31.41;95131.13;6063646;28;109122;-60
2024/01/09 04:46:35;;;;;;;20.03;18.40;;;;;;;21.47;31.64;95130.63;6065363;28;109322;-59
2024/01/09 04:49:39;;;;;;;19.53;17.70;;;;;;;21.41;31.68;95131.84;6047129;28;110229;-59
2024/01/09 04:52:42;;;;;;;17.50;16.00;;;;;;;21.52;31.91;95148.41;6058849;28;108968;-55
2024/01/09 04:55:45;;;;;;;16.90;14.60;;;;;;;21.54;32.07;95158.75;6050073;28;109416;-54
2024/01/09 04:58:53;;;;;;;15.23;13.67;;;;;;;21.58;32.11;95162.38;6049567;28;109365;-55
2024/01/09 05:01:56;;;;;;;13.00;11.93;;;;;;;21.61;32.39;95146.59;6054905;28;110184;-54
2024/01/09 05:05:00;;;;;;;8.20;6.07;;;;;;;21.11;30.10;95165.19;6050207;28;109193;-55
2024/01/09 05:08:04;;;;;;;7.20;5.20;;;;;;;20.64;29.73;95134.38;6061922;28;110166;-56
2024/01/09 05:11:07;;;;;;;8.73;6.43;;;;;;;21.17;30.48;95131.25;6055328;28;109095;-55
2024/01/09 05:14:10;;;;;;;11.33;6.10;;;;;;;21.21;29.89;95126.94;6034309;28;110003;-55
2024/01/09 05:17:13;;;;;;;6.87;5.43;;;;;;;21.29;29.94;95120.13;6039392;28;109536;-55
2024/01/09 05:20:18;;;;;;;8.23;5.40;;;;;;;21.34;30.16;95122.66;6040268;28;109015;-55
2024/01/09 05:23:21;;;;;;;7.37;5.30;;;;;;;21.36;30.25;95136.50;6029497;28;110231;-55
2024/01/09 05:26:24;;;;;;;6.23;4.57;;;;;;;21.34;30.71;95146.63;6039740;28;110031;-55
2024/01/09 05:29:27;;;;;;;5.43;4.83;;;;;;;21.32;30.43;95146.13;6039623;28;110292;-55
2024/01/09 05:32:30;;;;;;;5.20;4.17;;;;;;;21.30;30.79;95148.31;6039445;28;109003;-55
2024/01/09 05:35:35;;;;;;;4.83;3.87;;;;;;;21.29;31.04;95155.50;6029298;28;109240;-54
2024/01/09 05:38:38;;;;;;;5.47;4.20;;;;;;;21.28;31.00;95164.59;6039638;28;110350;-55
2024/01/09 05:41:41;;;;;;;7.83;4.13;;;;;;;21.29;30.67;95165.38;6039603;28;110280;-55
2024/01/09 05:44:44;;;;;;;4.10;3.50;;;;;;;21.29;30.88;95158.16;6034237;28;109227;-56
2024/01/09 05:47:48;;;;;;;4.77;3.70;;;;;;;21.28;30.61;95169.91;6033044;28;109642;-55
2024/01/09 05:50:52;;;;;;;5.47;3.70;;;;;;;21.30;30.75;95175.72;6039472;28;110055;-55
2024/01/09 05:53:56;;;;;;;6.30;3.40;;;;;;;21.30;30.65;95178.38;6042822;28;110307;-55
2024/01/09 05:56:59;;;;;;;4.17;3.50;;;;;;;21.30;30.95;95189.03;6052301;28;108983;-55
2024/01/09 06:00:02;;;;;;;3.70;3.07;;;;;;;21.32;30.79;95199.38;6062073;28;110074;-55
2024/01/09 06:03:06;;;;;;;4.13;3.00;;;;;;;21.33;30.51;95212.38;6063199;28;109400;-59
2024/01/09 06:06:10;;;;;;;3.40;2.70;;;;;;;21.34;30.77;95219.31;6042873;28;109074;-59
2024/01/09 06:09:14;;;;;;;3.00;2.70;;;;;;;21.34;30.78;95235.28;6029005;28;110185;-59
2024/01/09 06:12:17;;;;;;;3.30;2.60;;;;;;;21.36;30.61;95243.75;6038998;28;109965;-59
2024/01/09 06:15:20;;;;;;;3.57;2.87;;;;;;;21.34;30.37;95258.44;6037058;28;109576;-59
2024/01/09 06:18:23;;;;;;;3.07;2.70;;;;;;;21.35;30.38;95276.78;6038901;28;110498;-59
2024/01/09 06:21:28;;;;;;;3.17;2.87;;;;;;;21.34;30.62;95291.19;6028779;28;109083;-59
2024/01/09 06:24:31;;;;;;;2.83;2.60;;;;;;;21.33;30.66;95305.53;6038526;28;109215;-60
2024/01/09 06:27:34;;;;;;;5.40;3.33;;;;;;;21.33;30.39;95310.88;6038736;28;109656;-60
2024/01/09 06:30:37;;;;;;;3.47;2.73;;;;;;;21.33;30.77;95316.19;6033332;28;109146;-59
2024/01/09 06:33:40;;;;;;;2.77;2.50;;;;;;;21.31;30.35;95323.69;6033093;28;109272;-58
2024/01/09 06:36:45;;;;;;;3.17;2.83;;;;;;;21.30;30.49;95322.13;6062360;28;109330;-60
2024/01/09 06:39:48;;;;;;;3.53;3.23;;;;;;;21.29;30.34;95336.50;6061739;28;110209;-59
2024/01/09 06:42:52;;;;;;;3.90;2.93;;;;;;;21.31;30.49;95349.53;6050822;28;110078;-59
2024/01/09 06:45:55;;;;;;;3.50;3.20;;;;;;;21.31;30.12;95349.53;6044578;28;109457;-59
2024/01/09 06:48:58;;;;;;;3.63;3.00;;;;;;;21.32;30.26;95354.56;6038811;28;109336;-59
2024/01/09 06:52:03;;;;;;;3.33;2.93;;;;;;;21.32;30.33;95351.88;6038440;28;109191;-59
2024/01/09 06:55:07;;;;;;;3.20;2.90;;;;;;;21.33;30.16;95364.13;6028003;28;111573;-59
2024/01/09 06:58:12;;;;;;;3.10;2.63;;;;;;;21.32;30.14;95373.19;6038378;28;110209;-59
2024/01/09 07:01:15;;;;;;;3.63;3.07;;;;;;;21.34;30.22;95392.34;6056700;28;110033;-59
2024/01/09 07:04:20;;;;;;;3.70;2.57;;;;;;;21.34;30.78;95383.53;6057262;28;110325;-59
2024/01/09 07:07:25;;;;;;;3.53;2.70;;;;;;;21.33;30.26;95390.72;6056731;28;109222;-59
2024/01/09 07:10:43;;;;;;;3.40;3.10;;;;;;;21.32;29.89;95394.47;6056535;28;109700;-59
2024/01/09 07:13:46;;;;;;;3.53;2.87;;;;;;;21.31;30.19;95408.88;6038077;28;109132;-59
2024/01/09 07:16:49;;;;;;;3.70;2.90;;;;;;;21.30;29.95;95401.19;6049465;28;109412;-59
2024/01/09 07:19:52;;;;;;;2.47;2.27;;;;;;;21.31;29.82;95418.72;6061249;28;109128;-59
2024/01/09 07:22:57;;;;;;;2.73;2.53;;;;;;;21.31;29.68;95426.72;6061633;28;110088;-59
2024/01/09 07:26:11;;;;;;;3.17;2.70;;;;;;;21.34;29.63;95424.28;6061354;28;109117;-59
2024/01/09 07:29:17;;;;;;;2.37;2.17;;;;;;;21.37;30.08;95422.91;6049992;28;109422;-59
2024/01/09 07:32:21;;;;;;;2.97;2.60;;;;;;;21.38;29.56;95427.16;6061381;28;109634;-59
2024/01/09 07:35:24;;;;;;;2.73;2.50;;;;;;;21.37;29.78;95431.69;6050946;28;109015;-59
2024/01/09 07:38:29;;;;;;;2.83;2.13;;;;;;;21.43;29.33;95432.38;6038902;28;109413;-58
2024/01/09 07:41:32;;;;;;;3.00;2.03;;;;;;;21.37;29.61;95425.56;6055949;28;110052;-58
2024/01/09 07:44:35;;;;;;;2.50;2.30;;;;;;;21.36;29.82;95426.66;6060635;28;109247;-59
2024/01/09 07:47:38;;;;;;;2.60;2.30;;;;;;;21.44;29.91;95433.97;6060522;28;109165;-59
2024/01/09 07:50:42;;;;;;;3.17;2.40;;;;;;;21.55;29.56;95432.72;6050640;28;109054;-59
2024/01/09 07:53:46;;;;;;;2.70;2.20;;;;;;;21.71;30.10;95435.91;6061301;28;110028;-59
2024/01/09 07:56:50;;;;;;;3.80;2.70;;;;;;;21.78;29.99;95444.28;6063972;28;109180;-59
2024/01/09 07:59:53;;;;;;;3.00;2.70;;;;;;;21.82;29.47;95439.97;6064577;28;109516;-58
2024/01/09 08:02:56;;;;;;;3.60;2.37;;;;;;;21.81;29.81;95446.38;6053839;28;109538;-58
2024/01/09 08:05:59;;;;;;;2.77;2.40;;;;;;;21.83;29.15;95446.88;6064072;28;109161;-57
2024/01/09 08:09:05;;;;;;;3.10;2.80;;;;;;;21.71;29.35;95455.34;6064594;28;108949;-58
2024/01/09 08:12:08;;;;;;;2.77;2.50;;;;;;;21.55;29.71;95453.22;6064190;28;109161;-59
2024/01/09 08:15:11;;;;;;;2.83;2.63;;;;;;;21.47;30.17;95462.66;6048353;28;110232;-59
2024/01/09 08:18:15;;;;;;;2.67;2.43;;;;;;;21.41;30.24;95475.28;6039978;28;111122;-59
2024/01/09 08:21:18;;;;;;;2.67;2.47;;;;;;;21.42;30.10;95473.41;6040853;28;110137;-60
2024/01/09 08:24:23;;;;;;;2.63;2.33;;;;;;;21.45;29.51;95476.25;6033270;28;109178;-56
2024/01/09 08:27:26;;;;;;;3.40;3.10;;;;;;;21.46;29.50;95480.50;6038399;28;109134;-58
2024/01/09 08:30:29;;;;;;;2.73;2.13;;;;;;;21.47;29.37;95483.97;6040369;28;108998;-58
2024/01/09 08:33:35;;;;;;;2.60;2.20;;;;;;;21.48;29.91;95491.66;6040533;28;109079;-58
2024/01/09 08:36:38;;;;;;;3.33;3.03;;;;;;;21.47;29.72;95492.72;6029370;28;109060;-58
2024/01/09 08:39:43;;;;;;;2.67;2.47;;;;;;;21.45;29.26;95489.56;6040632;28;110421;-59
2024/01/09 08:42:46;;;;;;;2.97;2.67;;;;;;;21.48;29.83;95488.19;6040397;28;110058;-59
2024/01/09 08:45:49;;;;;;;2.50;2.30;;;;;;;21.42;29.77;95482.19;6039976;28;109149;-59
2024/01/09 08:48:52;;;;;;;2.57;2.37;;;;;;;21.39;30.01;95480.09;6028725;28;109039;-59
2024/01/09 08:51:56;;;;;;;3.00;2.70;;;;;;;21.37;29.78;95484.13;6040085;28;109153;-59
2024/01/09 08:55:00;;;;;;;3.10;2.20;;;;;;;21.35;29.92;95495.06;6040340;28;110275;-58
2024/01/09 08:58:03;;;;;;;2.77;2.30;;;;;;;21.35;29.98;95491.63;6035246;28;109113;-58
2024/01/09 09:01:06;;;;;;;2.90;2.53;;;;;;;21.34;29.86;95482.03;6034206;28;110082;-59
2024/01/09 09:04:09;;;;;;;2.43;2.23;;;;;;;21.33;29.80;95491.09;6039769;28;109706;-58
2024/01/09 09:07:13;;;;;;;3.03;2.43;;;;;;;21.32;29.84;95498.28;6039139;28;109190;-58
2024/01/09 09:10:17;;;;;;;2.47;2.27;;;;;;;21.29;29.82;95506.06;6030798;28;111489;-58
2024/01/09 09:13:21;;;;;;;3.43;2.47;;;;;;;21.31;29.77;95510.03;6063125;28;109549;-58
2024/01/09 09:16:28;;;;;;;3.60;2.50;;;;;;;21.30;29.59;95508.44;6063167;28;110242;-58
2024/01/09 09:19:31;;;;;;;2.70;2.23;;;;;;;21.29;29.66;95496.22;6062794;28;109251;-59
2024/01/09 09:22:35;;;;;;;3.10;2.40;;;;;;;21.27;29.88;95503.69;6052817;28;110520;-59
2024/01/09 09:25:40;;;;;;;2.50;2.20;;;;;;;21.37;29.23;95500.09;6063071;28;109082;-58
2024/01/09 09:28:47;;;;;;;2.50;2.30;;;;;;;21.46;28.75;95501.00;6063369;28;109860;-59
2024/01/09 09:32:08;;;;;;;3.00;2.67;;;;;;;21.52;29.09;95499.88;6058690;28;110134;-56
2024/01/09 09:35:11;;;;;;;14.40;13.30;;;;;;;21.56;29.23;95494.75;6057690;28;108949;-59
2024/01/09 09:38:15;;;;;;;22.37;20.67;;;;;;;21.55;29.12;95493.97;6063333;28;109454;-59
2024/01/09 09:41:21;;;;;;;22.60;20.90;;;;;;;21.55;28.93;95501.16;6055794;28;109098;-59
2024/01/09 09:44:26;;;;;;;21.03;19.43;;;;;;;21.54;29.10;95502.25;6029084;28;108968;-58
2024/01/09 09:47:29;;;;;;;18.70;17.20;;;;;;;21.54;29.20;95497.72;6058838;28;109338;-58
2024/01/09 09:50:34;;;;;;;19.90;18.43;;;;;;;21.49;29.21;95490.56;6061975;28;109477;-59
2024/01/09 09:53:37;;;;;;;18.63;17.23;;;;;;;21.45;29.78;95483.47;6062867;28;109378;-59
2024/01/09 09:56:42;;;;;;;17.90;16.57;;;;;;;21.44;29.55;95490.66;6052019;28;110076;-59
2024/01/09 09:59:45;;;;;;;16.80;15.50;;;;;;;21.44;29.64;95488.00;6063292;28;110032;-59
2024/01/09 10:02:50;;;;;;;16.30;15.07;;;;;;;21.43;29.44;95485.63;6062468;28;109233;-59
2024/01/09 10:05:56;;;;;;;13.30;12.30;;;;;;;21.44;29.77;95476.56;6062413;28;109558;-58
2024/01/09 10:09:03;;;;;;;13.30;12.30;;;;;;;21.44;29.65;95481.88;6054133;28;109199;-58
2024/01/09 10:12:08;;;;;;;12.50;11.50;;;;;;;21.44;29.50;95476.56;6061963;28;109035;-59
2024/01/09 10:15:15;;;;;;;10.40;9.60;;;;;;;21.45;29.63;95478.13;6062483;28;110139;-58
2024/01/09 10:18:18;;;;;;;10.80;10.00;;;;;;;21.44;29.22;95469.34;6027790;28;109974;-58
2024/01/09 10:21:23;;;;;;;9.80;9.00;;;;;;;21.44;29.26;95481.88;6038092;28;109297;-58
2024/01/09 10:24:26;;;;;;;9.33;8.47;;;;;;;21.43;29.74;95482.97;6038716;28;109100;-58
2024/01/09 10:27:30;;;;;;;8.30;7.70;;;;;;;21.41;29.39;95477.94;6038963;28;109275;-59
2024/01/09 10:30:34;;;;;;;7.40;6.80;;;;;;;21.40;29.45;95481.69;6028801;28;109289;-59
2024/01/09 10:33:39;;;;;;;7.07;6.57;;;;;;;21.39;29.27;95485.41;6038673;28;109240;-58
2024/01/09 10:36:43;;;;;;;6.73;6.23;;;;;;;21.39;29.62;95488.09;6038698;28;109354;-58
2024/01/09 10:39:50;;;;;;;6.93;6.33;;;;;;;21.38;29.50;95502.47;6038776;28;109993;-59
2024/01/09 10:42:54;;;;;;;5.90;5.50;;;;;;;21.37;29.18;95500.91;6028207;28;109859;-55
2024/01/09 10:46:01;;;;;;;6.33;5.83;;;;;;;21.38;29.41;95509.69;6038634;28;110160;-55
2024/01/09 10:49:07;;;;;;;5.27;4.80;;;;;;;21.37;29.34;95508.09;6038757;28;110073;-55
2024/01/09 10:52:13;;;;;;;5.50;5.03;;;;;;;21.37;28.98;95527.53;6029018;28;113094;-55
2024/01/09 10:55:18;;;;;;;6.00;5.50;;;;;;;21.36;29.30;95528.59;6038239;28;109493;-55
2024/01/09 10:58:24;;;;;;;5.50;5.07;;;;;;;21.37;28.89;95532.84;6037914;28;109066;-54
2024/01/09 11:01:27;;;;;;;4.90;4.50;;;;;;;21.36;29.34;95541.91;6038692;28;109356;-54
2024/01/09 11:04:31;;;;;;;4.60;4.20;;;;;;;21.36;29.12;95549.09;6028549;28;110013;-55
2024/01/09 11:07:35;;;;;;;4.80;4.40;;;;;;;21.35;28.94;95556.31;6038601;28;111296;-55
2024/01/09 11:10:40;;;;;;;4.90;4.50;;;;;;;21.34;28.77;95553.91;6038805;28;109935;-55
2024/01/09 11:13:49;;;;;;;4.30;3.90;;;;;;;21.32;28.91;95564.84;6061137;28;109199;-55
2024/01/09 11:16:54;;;;;;;4.70;4.30;;;;;;;21.32;28.63;95572.03;6040945;28;110140;-54
2024/01/09 11:19:57;;;;;;;5.80;4.03;;;;;;;21.29;28.94;95565.41;6037672;28;109011;-54
2024/01/09 11:23:00;;;;;;;4.80;3.90;;;;;;;21.27;29.16;95572.91;6037353;28;110220;-54
2024/01/09 11:26:04;;;;;;;4.53;4.13;;;;;;;21.32;28.96;95586.13;6032154;28;109600;-55
2024/01/09 11:29:08;;;;;;;4.43;4.03;;;;;;;21.29;29.17;95584.06;6033263;28;109963;-55
2024/01/09 11:32:11;;;;;;;4.53;4.13;;;;;;;21.25;28.91;95588.38;6037989;28;109540;-55
2024/01/09 11:35:16;;;;;;;4.17;3.87;;;;;;;21.26;28.86;95597.94;6038243;28;109299;-55
2024/01/09 11:38:19;;;;;;;3.87;3.57;;;;;;;21.25;28.71;95598.22;6026674;28;108945;-55
2024/01/09 11:41:24;;;;;;;3.80;3.50;;;;;;;21.27;28.70;95604.84;6042462;28;110306;-55
2024/01/09 11:44:28;;;;;;;3.50;3.20;;;;;;;21.26;28.72;95608.59;6061115;28;109095;-55
2024/01/09 11:47:31;;;;;;;3.60;3.30;;;;;;;21.27;28.98;95614.69;6060271;28;108868;-56
2024/01/09 11:50:35;;;;;;;4.63;4.10;;;;;;;21.27;28.62;95625.34;6051025;28;109240;-57
2024/01/09 11:53:38;;;;;;;3.77;3.43;;;;;;;21.25;28.92;95616.88;6060074;28;109378;-55
2024/01/09 11:56:42;;;;;;;3.60;3.30;;;;;;;21.26;28.75;95626.44;6060855;28;110200;-55
2024/01/09 11:59:48;;;;;;;3.67;3.37;;;;;;;21.24;28.98;95637.38;6056293;28;110293;-55
2024/01/09 12:02:52;;;;;;;3.40;3.10;;;;;;;21.23;28.80;95643.75;6055576;28;109150;-56
2024/01/09 12:05:55;;;;;;;3.67;3.27;;;;;;;21.21;28.96;95637.94;6060657;28;109340;-55
2024/01/09 12:08:59;;;;;;;3.40;3.10;;;;;;;21.20;29.25;95641.69;6037167;28;109348;-55
2024/01/09 12:12:03;;;;;;;3.80;3.40;;;;;;;21.19;29.16;95650.75;6037807;28;109095;-55
2024/01/09 12:15:09;;;;;;;3.90;3.40;;;;;;;21.19;29.09;95661.38;6060164;28;109102;-55
2024/01/09 12:18:12;;;;;;;3.30;3.00;;;;;;;21.17;28.96;95664.34;6060391;28;110124;-55
2024/01/09 12:21:16;;;;;;;3.47;3.17;;;;;;;21.17;28.55;95663.53;6060157;28;109011;-55
2024/01/09 12:24:19;;;;;;;3.17;2.87;;;;;;;21.15;28.94;95666.47;6049477;28;109115;-55
2024/01/09 12:27:28;;;;;;;3.50;3.20;;;;;;;21.15;28.64;95666.47;6059931;28;109023;-56
2024/01/09 12:30:33;;;;;;;4.10;3.20;;;;;;;21.15;28.60;95665.69;6060100;28;109003;-56
2024/01/09 12:33:36;;;;;;;3.43;3.13;;;;;;;21.15;28.43;95671.00;6059605;28;109112;-55
2024/01/09 12:36:40;;;;;;;3.47;3.17;;;;;;;21.13;28.07;95673.94;6045412;28;109771;-55
2024/01/09 12:39:44;;;;;;;3.60;3.30;;;;;;;21.13;28.15;95673.94;6036506;28;110238;-55
2024/01/09 12:43:04;;;;;;;3.90;3.50;;;;;;;21.14;28.22;95677.41;6052379;28;109273;-55
2024/01/09 12:46:08;;;;;;;2.70;2.50;;;;;;;21.14;28.23;95686.16;6054300;28;109502;-55
2024/01/09 12:49:12;;;;;;;3.37;3.07;;;;;;;21.14;28.87;95691.50;6063078;28;109665;-55
2024/01/09 12:52:20;;;;;;;3.00;2.70;;;;;;;21.14;28.16;95698.69;6063945;28;110298;-54
2024/01/09 12:55:25;;;;;;;4.20;3.10;;;;;;;21.12;28.61;95692.84;6063132;28;110099;-54
2024/01/09 12:58:28;;;;;;;3.10;2.80;;;;;;;21.11;28.30;95704.59;6052958;28;110257;-54
2024/01/09 13:01:33;;;;;;;3.30;3.00;;;;;;;21.11;28.63;95712.56;6063198;28;109454;-54
2024/01/09 13:04:36;;;;;;;2.83;2.60;;;;;;;21.11;28.63;95712.56;6063986;28;110119;-58
2024/01/09 13:07:39;;;;;;;3.00;2.70;;;;;;;21.14;27.72;95712.00;6063414;28;111029;-58
2024/01/09 13:10:42;;;;;;;3.10;2.80;;;;;;;21.17;27.42;95706.91;6053076;28;109468;-59
2024/01/09 13:13:46;;;;;;;3.23;2.93;;;;;;;21.14;28.39;95706.66;6057852;28;109674;-59
2024/01/09 13:16:52;;;;;;;3.40;3.03;;;;;;;21.10;28.58;95717.09;6064215;28;109676;-58
2024/01/09 13:19:55;;;;;;;3.40;2.90;;;;;;;21.09;28.86;95720.84;6055478;28;110158;-58
2024/01/09 13:22:58;;;;;;;3.20;2.90;;;;;;;21.09;28.34;95730.69;6062808;28;109521;-59
2024/01/09 13:26:04;;;;;;;3.33;2.80;;;;;;;21.09;28.69;95733.34;6059209;28;109712;-61
2024/01/09 13:29:08;;;;;;;2.70;2.50;;;;;;;21.07;28.62;95733.63;6063423;28;109150;-59
2024/01/09 13:32:15;;;;;;;2.90;2.50;;;;;;;21.08;28.27;95737.88;6051110;28;109686;-60
2024/01/09 13:35:18;;;;;;;2.50;2.30;;;;;;;21.17;27.83;95738.03;6062856;28;109011;-59
2024/01/09 13:38:22;;;;;;;3.00;2.60;;;;;;;21.16;27.83;95736.44;6062568;28;109232;-60
2024/01/09 13:41:27;;;;;;;2.47;2.27;;;;;;;21.11;28.33;95736.50;6062901;28;109556;-58
2024/01/09 13:44:33;;;;;;;2.83;2.53;;;;;;;21.10;28.23;95742.91;6028846;28;109451;-58
2024/01/09 13:47:38;;;;;;;2.70;2.10;;;;;;;21.08;28.43;95745.84;6039772;28;109436;-59
2024/01/09 13:50:45;;;;;;;2.90;2.23;;;;;;;21.08;28.48;95742.41;6039210;28;109215;-59
2024/01/09 13:54:08;;;;;;;2.60;2.10;;;;;;;21.10;27.25;95742.91;6029796;28;108923;-60
2024/01/09 13:57:13;;;;;;;2.70;2.40;;;;;;;21.13;27.96;95747.66;6038652;28;109067;-59
2024/01/09 14:00:17;;;;;;;2.77;2.40;;;;;;;21.09;27.89;95757.28;6038906;28;109140;-59
2024/01/09 14:03:22;;;;;;;2.40;2.20;;;;;;;21.09;27.33;95749.31;6051478;28;109288;-59
2024/01/09 14:06:29;;;;;;;2.53;2.27;;;;;;;21.08;27.54;95761.81;6051880;28;109606;-59
2024/01/09 14:09:33;;;;;;;2.67;2.10;;;;;;;21.09;28.04;95762.63;6061995;28;109172;-59
2024/01/09 14:12:36;;;;;;;3.20;2.80;;;;;;;21.09;27.43;95766.06;6055326;28;109647;-55
2024/01/09 14:15:39;;;;;;;3.00;2.33;;;;;;;21.10;27.42;95767.66;6038554;28;110150;-55